Time;durP1;ratioP1;P1;durP2;ratioP2;P2;SDS_P1;SDS_P2;PMS_P1;PMS_P2;Temp;Humidity;BMP_temperature;BMP_pressure;BME280_temperature;BME280_humidity;BME280_pressure;Samples;Min_cycle;Max_cycle;Signal;HPM_P1;HPM_P2
2023/04/06 00:01:21;;;;;;;15.13;7.63;;;4.30;90.80;;;;;;4998093;28;20034;-77
2023/04/06 00:03:46;;;;;;;13.53;6.93;;;4.10;91.40;;;;;;5001511;28;20482;-75
2023/04/06 00:06:12;;;;;;;11.97;7.03;;;4.30;91.30;;;;;;4998054;28;20094;-77
2023/04/06 00:08:38;;;;;;;18.03;7.10;;;4.20;91.30;;;;;;5005557;28;20363;-75
2023/04/06 00:11:03;;;;;;;16.17;7.17;;;4.30;91.10;;;;;;4995479;28;20485;-78
2023/04/06 00:13:29;;;;;;;13.18;6.95;;;4.20;91.30;;;;;;4997311;28;20041;-74
2023/04/06 00:15:55;;;;;;;13.20;7.15;;;4.00;91.70;;;;;;4984578;28;20034;-75
2023/04/06 00:18:22;;;;;;;14.50;8.57;;;4.10;92.20;;;;;;5004630;28;20076;-76
2023/04/06 00:20:47;;;;;;;15.70;7.55;;;4.10;91.90;;;;;;4999292;28;20026;-76
2023/04/06 00:23:13;;;;;;;13.63;7.47;;;4.00;91.70;;;;;;5002784;28;20040;-76
2023/04/06 00:25:39;;;;;;;16.10;8.97;;;3.90;92.40;;;;;;5008231;28;20037;-74
2023/04/06 00:28:04;;;;;;;16.23;7.20;;;4.10;91.80;;;;;;5004906;28;20049;-74
2023/04/06 00:30:30;;;;;;;15.77;7.57;;;4.00;91.90;;;;;;4994350;28;20912;-77
2023/04/06 00:32:56;;;;;;;18.63;8.40;;;3.80;92.50;;;;;;4997867;28;20312;-76
2023/04/06 00:35:21;;;;;;;16.00;7.00;;;3.90;92.70;;;;;;4999850;28;20180;-75
2023/04/06 00:37:50;;;;;;;14.70;7.63;;;4.00;92.70;;;;;;5007340;28;20572;-77
2023/04/06 00:40:16;;;;;;;16.40;7.20;;;3.90;92.60;;;;;;5007247;28;20062;-76
2023/04/06 00:42:42;;;;;;;16.45;8.13;;;3.90;92.60;;;;;;4998449;28;20053;-76
2023/04/06 00:45:08;;;;;;;12.77;6.75;;;3.80;93.10;;;;;;5003690;28;20053;-76
2023/04/06 00:47:34;;;;;;;19.13;8.63;;;3.80;92.70;;;;;;5003172;28;20025;-76
2023/04/06 00:50:00;;;;;;;18.27;8.73;;;4.00;93.30;;;;;;5004181;28;20037;-76
2023/04/06 00:52:25;;;;;;;21.73;10.10;;;4.00;92.80;;;;;;5005995;28;20038;-73
2023/04/06 00:54:51;;;;;;;15.57;7.93;;;3.80;93.40;;;;;;5005288;28;20041;-73
2023/04/06 00:57:18;;;;;;;12.38;7.60;;;3.70;93.90;;;;;;5010356;28;20048;-74
2023/04/06 00:59:44;;;;;;;14.50;7.20;;;3.60;93.50;;;;;;4998135;28;20113;-75
2023/04/06 01:02:10;;;;;;;13.30;7.95;;;3.50;93.80;;;;;;5001270;28;20492;-75
2023/04/06 01:04:35;;;;;;;14.17;8.47;;;3.60;93.90;;;;;;5002395;28;20044;-76
2023/04/06 01:07:01;;;;;;;15.23;7.70;;;3.80;93.60;;;;;;5001153;28;20034;-75
2023/04/06 01:09:30;;;;;;;14.02;7.70;;;3.90;92.80;;;;;;4990325;28;20742;-74
2023/04/06 01:11:57;;;;;;;18.38;7.07;;;3.60;93.20;;;;;;5001828;28;20034;-73
2023/04/06 01:14:24;;;;;;;13.40;7.75;;;3.60;93.90;;;;;;4996028;28;20033;-74
2023/04/06 01:16:49;;;;;;;;;;;3.50;93.90;;;;;;5001167;28;20030;-75
2023/04/06 01:19:15;;;;;;;14.52;8.20;;;3.60;93.90;;;;;;5000693;28;19940;-77
2023/04/06 01:21:41;;;;;;;21.60;8.90;;;3.60;93.80;;;;;;4979772;28;20490;-75
2023/04/06 01:24:08;;;;;;;14.68;9.13;;;3.40;94.50;;;;;;4996599;28;20026;-75
2023/04/06 01:26:35;;;;;;;13.95;8.85;;;3.40;94.80;;;;;;5001921;28;20037;-75
2023/04/06 01:29:02;;;;;;;15.60;8.13;;;3.50;94.60;;;;;;5004292;28;20044;-76
2023/04/06 01:31:29;;;;;;;20.70;9.77;;;3.30;94.50;;;;;;4995411;28;20064;-73
2023/04/06 01:33:55;;;;;;;15.25;8.43;;;3.30;95.30;;;;;;5009856;28;20049;-76
2023/04/06 01:36:21;;;;;;;10.73;7.20;;;3.50;94.80;;;;;;5003506;28;20120;-76
2023/04/06 01:38:47;;;;;;;13.52;8.23;;;3.40;94.70;;;;;;5006581;28;20026;-74
2023/04/06 01:41:12;;;;;;;15.93;7.60;;;3.20;95.50;;;;;;5000366;28;20042;-77
2023/04/06 01:43:38;;;;;;;16.80;7.80;;;3.20;95.70;;;;;;4996506;28;20027;-77
2023/04/06 01:46:04;;;;;;;15.02;7.18;;;3.00;96.50;;;;;;5000541;28;20561;-77
2023/04/06 01:48:31;;;;;;;14.95;9.18;;;2.80;96.70;;;;;;5004837;28;20041;-77
2023/04/06 01:50:57;;;;;;;18.50;7.85;;;3.10;96.60;;;;;;5004414;28;20034;-76
2023/04/06 01:53:22;;;;;;;13.50;7.80;;;3.00;96.30;;;;;;5002377;28;20037;-77
2023/04/06 01:55:48;;;;;;;12.90;8.13;;;3.00;96.40;;;;;;5002800;28;20038;-75
2023/04/06 01:58:14;;;;;;;15.47;8.70;;;3.00;97.20;;;;;;5005161;28;20038;-74
2023/04/06 02:00:40;;;;;;;16.05;8.20;;;3.10;96.60;;;;;;5003808;28;20022;-77
2023/04/06 02:03:06;;;;;;;13.60;8.88;;;3.20;96.40;;;;;;5003735;28;20045;-77
2023/04/06 02:05:37;;;;;;;16.00;9.13;;;3.20;96.10;;;;;;4998832;28;20077;-76
2023/04/06 02:08:04;;;;;;;12.48;8.15;;;3.00;97.10;;;;;;5009114;28;20112;-74
2023/04/06 02:10:30;;;;;;;17.05;8.38;;;2.90;96.80;;;;;;5000293;28;20034;-77
2023/04/06 02:12:56;;;;;;;15.90;8.50;;;2.90;97.80;;;;;;4997999;28;20026;-78
2023/04/06 02:15:22;;;;;;;20.50;8.23;;;2.80;98.10;;;;;;4997487;28;20376;-77
2023/04/06 02:17:47;;;;;;;15.57;7.93;;;2.80;97.50;;;;;;5000717;28;20029;-77
2023/04/06 02:20:13;;;;;;;15.13;8.40;;;2.90;97.40;;;;;;5000156;28;20033;-77
2023/04/06 02:22:40;;;;;;;14.33;8.27;;;2.80;97.30;;;;;;5004144;28;20041;-74
2023/04/06 02:25:06;;;;;;;13.27;8.38;;;2.70;97.70;;;;;;4995031;28;20296;-75
2023/04/06 02:27:31;;;;;;;15.30;8.50;;;2.90;98.20;;;;;;5002572;28;20041;-75
2023/04/06 02:29:57;;;;;;;15.53;8.70;;;2.80;97.70;;;;;;4999549;28;20046;-75
2023/04/06 02:32:23;;;;;;;15.97;8.93;;;2.70;97.80;;;;;;5002482;28;20492;-74
2023/04/06 02:34:48;;;;;;;16.73;8.33;;;2.70;98.50;;;;;;5002129;28;20405;-77
2023/04/06 02:37:14;;;;;;;16.57;8.10;;;2.70;98.40;;;;;;5005061;28;20044;-77
2023/04/06 02:39:40;;;;;;;16.83;7.90;;;2.80;98.00;;;;;;5004088;28;20404;-73
2023/04/06 02:42:06;;;;;;;15.35;7.93;;;2.80;98.20;;;;;;4998708;28;20030;-75
2023/04/06 02:44:32;;;;;;;12.30;8.27;;;2.80;98.30;;;;;;4997678;28;20030;-74
2023/04/06 02:46:57;;;;;;;17.87;9.30;;;2.80;98.50;;;;;;4999045;28;20405;-73
2023/04/06 02:49:23;;;;;;;20.83;8.73;;;2.70;98.50;;;;;;4994387;28;20038;-73
2023/04/06 02:51:48;;;;;;;15.50;8.50;;;2.70;98.60;;;;;;5005890;28;20319;-74
2023/04/06 02:54:14;;;;;;;17.00;8.77;;;2.80;98.20;;;;;;4999833;28;20095;-76
2023/04/06 02:56:40;;;;;;;14.77;8.95;;;2.80;98.30;;;;;;4997755;28;20379;-74
2023/04/06 02:59:06;;;;;;;16.93;8.97;;;2.90;98.00;;;;;;4995346;28;20045;-76
2023/04/06 03:01:32;;;;;;;13.15;8.20;;;2.60;98.10;;;;;;4997085;28;20801;-75
2023/04/06 03:03:57;;;;;;;14.47;8.77;;;2.40;99.10;;;;;;4997676;28;20038;-74
2023/04/06 03:06:23;;;;;;;14.97;8.47;;;2.40;99.80;;;;;;4993763;28;20297;-73
2023/04/06 03:08:49;;;;;;;18.10;8.13;;;2.30;99.70;;;;;;4993149;28;20483;-76
2023/04/06 03:11:14;;;;;;;13.27;8.23;;;2.30;99.40;;;;;;4981536;28;20031;-76
2023/04/06 03:13:40;;;;;;;13.20;8.10;;;2.30;99.90;;;;;;5003260;28;20414;-76
2023/04/06 03:16:06;;;;;;;18.40;7.93;;;2.60;99.50;;;;;;4999964;28;20042;-76
2023/04/06 03:18:32;;;;;;;16.33;8.85;;;2.50;99.60;;;;;;4997197;28;20294;-73
2023/04/06 03:20:57;;;;;;;16.05;8.93;;;2.50;99.50;;;;;;4999364;28;20038;-74
2023/04/06 03:23:23;;;;;;;14.80;9.03;;;2.50;99.90;;;;;;4997085;28;20042;-77
2023/04/06 03:25:49;;;;;;;20.03;9.10;;;2.50;99.90;;;;;;4999552;28;20321;-74
2023/04/06 03:28:15;;;;;;;18.45;7.90;;;2.60;99.60;;;;;;4997911;28;20144;-75
2023/04/06 03:30:41;;;;;;;;;;;2.50;99.20;;;;;;5004604;28;20033;-75
2023/04/06 03:33:07;;;;;;;14.52;8.38;;;2.50;99.60;;;;;;4997321;28;19913;-76
2023/04/06 03:35:32;;;;;;;16.73;8.20;;;2.60;99.60;;;;;;4997754;28;20077;-74
2023/04/06 03:37:58;;;;;;;13.82;8.18;;;2.50;99.10;;;;;;5002718;28;20037;-76
2023/04/06 03:40:24;;;;;;;14.75;8.40;;;2.50;99.20;;;;;;5001819;28;20528;-74
2023/04/06 03:42:50;;;;;;;12.93;8.25;;;2.30;99.30;;;;;;5002757;28;20030;-74
2023/04/06 03:45:16;;;;;;;13.05;7.68;;;2.20;99.90;;;;;;4995800;28;20033;-74
2023/04/06 03:47:42;;;;;;;15.90;9.18;;;2.20;99.90;;;;;;4998365;28;20018;-74
2023/04/06 03:50:08;;;;;;;13.50;8.23;;;2.40;99.90;;;;;;5003876;28;20701;-76
2023/04/06 03:52:34;;;;;;;12.82;8.00;;;2.70;99.50;;;;;;4998309;28;20509;-74
2023/04/06 03:55:00;;;;;;;15.30;8.40;;;2.50;99.60;;;;;;4991522;28;20038;-76
2023/04/06 03:57:25;;;;;;;14.50;7.57;;;2.40;99.90;;;;;;4996861;28;20053;-76
2023/04/06 03:59:51;;;;;;;19.80;10.33;;;2.40;99.90;;;;;;5003144;28;20026;-75
2023/04/06 04:02:16;;;;;;;13.27;8.70;;;2.40;99.90;;;;;;5001349;28;20034;-76
2023/04/06 04:04:42;;;;;;;16.00;8.03;;;2.30;99.90;;;;;;4982308;28;20640;-76
2023/04/06 04:07:08;;;;;;;21.70;8.57;;;2.10;99.90;;;;;;4993064;28;20046;-75
2023/04/06 04:09:34;;;;;;;18.13;9.50;;;2.10;99.90;;;;;;4999317;28;20037;-74
2023/04/06 04:12:00;;;;;;;14.13;8.88;;;2.00;99.90;;;;;;5002375;28;20040;-75
2023/04/06 04:14:26;;;;;;;20.38;9.18;;;2.10;99.90;;;;;;5000856;28;20030;-76
2023/04/06 04:16:51;;;;;;;17.13;9.63;;;2.10;99.90;;;;;;5003803;28;20486;-76
2023/04/06 04:19:17;;;;;;;23.80;9.53;;;2.00;99.90;;;;;;4998566;28;20041;-77
2023/04/06 04:21:45;;;;;;;22.15;8.93;;;2.00;99.90;;;;;;5001587;28;20388;-75
2023/04/06 04:24:11;;;;;;;16.85;9.07;;;2.10;99.90;;;;;;5000193;28;20038;-76
2023/04/06 04:26:38;;;;;;;24.83;8.90;;;2.20;99.90;;;;;;4997358;28;20034;-77
2023/04/06 04:29:04;;;;;;;17.33;9.38;;;2.10;99.90;;;;;;4995125;28;20045;-77
2023/04/06 04:31:30;;;;;;;19.30;8.87;;;2.00;99.90;;;;;;4998704;28;20030;-77
2023/04/06 04:33:56;;;;;;;25.10;9.50;;;1.90;99.90;;;;;;5004269;28;20116;-78
2023/04/06 04:36:23;;;;;;;23.67;8.90;;;1.90;99.90;;;;;;5002383;28;20457;-75
2023/04/06 04:38:48;;;;;;;22.42;9.45;;;1.90;99.90;;;;;;4994893;28;20120;-74
2023/04/06 04:41:15;;;;;;;23.05;8.10;;;2.00;99.90;;;;;;4998565;28;20038;-74
2023/04/06 04:43:40;;;;;;;22.08;9.18;;;2.10;99.90;;;;;;4998260;28;20479;-74
2023/04/06 04:46:06;;;;;;;23.63;8.93;;;2.10;99.90;;;;;;4998957;28;20049;-76
2023/04/06 04:48:32;;;;;;;18.45;8.40;;;2.00;99.90;;;;;;4995986;28;20060;-76
2023/04/06 04:50:58;;;;;;;14.95;9.20;;;1.90;99.90;;;;;;4996725;28;20038;-74
2023/04/06 04:53:23;;;;;;;22.75;8.82;;;2.20;99.90;;;;;;4998306;28;20033;-73
2023/04/06 04:55:49;;;;;;;18.93;9.53;;;2.20;99.90;;;;;;5002878;28;20068;-75
2023/04/06 04:58:16;;;;;;;19.35;9.63;;;2.30;99.90;;;;;;5005573;28;20129;-75
2023/04/06 05:00:43;;;;;;;18.80;10.38;;;2.50;99.90;;;;;;4999260;28;20092;-74
2023/04/06 05:03:09;;;;;;;;;;;2.60;99.90;;;;;;4985149;28;20509;-74
2023/04/06 05:05:35;;;;;;;17.52;9.82;;;2.60;99.90;;;;;;4985383;28;19910;-77
2023/04/06 05:08:01;;;;;;;21.83;10.90;;;2.60;99.90;;;;;;4997343;28;20561;-74
2023/04/06 05:10:27;;;;;;;19.13;9.07;;;2.70;99.90;;;;;;4992965;28;20039;-74
2023/04/06 05:12:52;;;;;;;15.35;9.15;;;2.50;99.90;;;;;;5004109;28;20076;-76
2023/04/06 05:15:18;;;;;;;28.80;9.27;;;2.70;99.90;;;;;;5002015;28;20034;-75
2023/04/06 05:17:44;;;;;;;18.87;8.57;;;2.60;99.90;;;;;;5001291;28;20405;-76
2023/04/06 05:20:10;;;;;;;15.20;8.18;;;2.70;99.90;;;;;;4996180;28;20466;-75
2023/04/06 05:22:36;;;;;;;17.38;8.55;;;2.80;99.40;;;;;;4996209;28;20037;-75
2023/04/06 05:25:03;;;;;;;19.20;10.02;;;2.80;99.70;;;;;;5001127;28;20112;-75
2023/04/06 05:27:28;;;;;;;22.13;12.05;;;2.80;99.40;;;;;;4998103;28;20033;-74
2023/04/06 05:29:54;;;;;;;20.05;11.95;;;3.00;98.90;;;;;;4996408;28;20430;-73
2023/04/06 05:32:24;;;;;;;23.08;12.30;;;3.10;98.80;;;;;;4980884;28;20062;-75
2023/04/06 05:34:50;;;;;;;21.60;12.05;;;3.10;98.70;;;;;;4985157;28;20032;-73
2023/04/06 05:37:16;;;;;;;21.80;12.13;;;3.30;98.90;;;;;;4989639;28;20057;-76
2023/04/06 05:39:42;;;;;;;23.17;11.23;;;3.60;97.90;;;;;;5002970;28;20485;-77
2023/04/06 05:42:08;;;;;;;20.02;10.95;;;3.70;97.00;;;;;;5000244;28;20312;-76
2023/04/06 05:44:33;;;;;;;17.40;10.60;;;3.80;97.30;;;;;;4998329;28;20053;-75
2023/04/06 05:46:59;;;;;;;17.33;10.47;;;3.80;96.20;;;;;;4997720;28;20045;-79
2023/04/06 05:49:24;;;;;;;21.83;11.30;;;3.90;96.80;;;;;;4987605;28;20425;-81
2023/04/06 05:51:50;;;;;;;22.03;9.67;;;3.90;97.60;;;;;;5002881;28;20494;-77
2023/04/06 05:54:16;;;;;;;15.63;9.23;;;3.90;96.80;;;;;;4998417;28;20036;-76
2023/04/06 05:56:41;;;;;;;20.20;9.57;;;4.00;97.10;;;;;;4997987;28;20289;-75
2023/04/06 05:59:07;;;;;;;16.80;9.10;;;4.10;96.00;;;;;;4996939;28;20398;-75
2023/04/06 06:01:34;;;;;;;17.57;9.20;;;4.30;95.90;;;;;;5000557;28;20034;-77
2023/04/06 06:04:03;;;;;;;22.75;9.40;;;4.40;95.10;;;;;;5001590;28;20038;-76
2023/04/06 06:06:32;;;;;;;20.05;10.38;;;4.40;95.50;;;;;;4996127;28;20572;-77
2023/04/06 06:09:02;;;;;;;21.83;10.50;;;4.50;95.60;;;;;;4999053;28;20033;-77
2023/04/06 06:11:28;;;;;;;29.15;9.48;;;4.80;94.90;;;;;;4995924;28;20034;-77
2023/04/06 06:13:53;;;;;;;22.10;10.33;;;4.90;94.50;;;;;;4981988;28;20089;-76
2023/04/06 06:16:19;;;;;;;22.97;10.43;;;5.20;94.10;;;;;;5000350;28;20026;-77
2023/04/06 06:18:45;;;;;;;17.77;9.02;;;5.40;93.30;;;;;;4999507;28;20117;-77
2023/04/06 06:21:14;;;;;;;27.35;9.48;;;6.20;92.00;;;;;;4998226;28;20034;-75
2023/04/06 06:23:42;;;;;;;18.30;9.57;;;6.70;90.20;;;;;;4977811;28;20030;-77
2023/04/06 06:26:07;;;;;;;18.83;9.05;;;6.10;91.50;;;;;;4996783;28;20042;-75
2023/04/06 06:28:33;;;;;;;20.10;10.30;;;6.50;91.50;;;;;;4997939;28;20028;-75
2023/04/06 06:30:59;;;;;;;18.92;9.35;;;7.80;89.80;;;;;;4998892;28;20081;-74
2023/04/06 06:33:26;;;;;;;18.08;9.52;;;8.40;83.20;;;;;;4991744;28;20061;-76
2023/04/06 06:35:52;;;;;;;15.30;8.60;;;7.30;84.50;;;;;;4998723;28;20532;-78
2023/04/06 06:38:17;;;;;;;18.73;9.93;;;7.60;86.20;;;;;;4995158;28;20038;-79
2023/04/06 06:40:44;;;;;;;24.38;10.18;;;6.90;87.90;;;;;;4998013;28;20100;-78
2023/04/06 06:43:10;;;;;;;15.52;9.30;;;7.10;87.70;;;;;;4996558;28;20059;-79
2023/04/06 06:45:36;;;;;;;24.17;10.13;;;6.70;89.90;;;;;;4993033;28;20034;-76
2023/04/06 06:48:02;;;;;;;17.07;9.43;;;7.00;88.60;;;;;;5000602;28;20030;-78
2023/04/06 06:50:27;;;;;;;17.83;9.57;;;7.40;87.10;;;;;;5000537;28;20036;-79
2023/04/06 06:52:53;;;;;;;17.97;9.17;;;7.30;86.90;;;;;;5000345;28;20510;-79
2023/04/06 06:55:19;;;;;;;22.20;9.97;;;7.80;85.90;;;;;;4996307;28;20033;-79
2023/04/06 06:57:46;;;;;;;23.48;10.63;;;7.60;83.60;;;;;;4997589;28;20113;-73
2023/04/06 07:00:13;;;;;;;15.32;9.70;;;7.40;84.70;;;;;;4996233;28;20109;-77
2023/04/06 07:02:39;;;;;;;27.75;9.90;;;7.40;87.90;;;;;;4997929;28;20026;-73
2023/04/06 07:05:06;;;;;;;27.20;10.15;;;7.90;84.30;;;;;;5004522;28;20041;-73
2023/04/06 07:07:32;;;;;;;;;;;8.00;86.70;;;;;;4995190;28;20331;-71
2023/04/06 07:09:57;;;;;;;24.17;10.38;;;7.30;86.10;;;;;;4993965;28;19996;-74
2023/04/06 07:12:23;;;;;;;24.27;10.80;;;7.60;86.30;;;;;;4989855;28;20120;-74
2023/04/06 07:14:48;;;;;;;18.10;8.67;;;7.80;85.20;;;;;;4996399;28;20054;-73
2023/04/06 07:17:14;;;;;;;17.93;9.17;;;8.00;85.30;;;;;;4993650;28;20026;-71
2023/04/06 07:19:40;;;;;;;22.70;10.30;;;8.60;84.60;;;;;;4999269;28;20044;-72
2023/04/06 07:22:06;;;;;;;19.92;11.73;;;8.90;82.30;;;;;;4978286;28;20553;-71
2023/04/06 07:24:32;;;;;;;23.13;12.40;;;9.00;80.80;;;;;;4995176;28;20092;-76
2023/04/06 07:27:00;;;;;;;24.33;11.80;;;9.40;80.10;;;;;;5000677;28;20947;-72
2023/04/06 07:29:26;;;;;;;26.08;11.75;;;9.40;80.70;;;;;;4996240;28;20034;-70
2023/04/06 07:31:52;;;;;;;23.63;10.00;;;10.40;79.20;;;;;;4995008;28;20029;-71
2023/04/06 07:34:17;;;;;;;29.17;15.27;;;11.70;74.60;;;;;;4994765;28;20045;-73
2023/04/06 07:36:43;;;;;;;36.00;14.87;;;12.30;76.60;;;;;;4978770;28;20153;-72
2023/04/06 07:39:09;;;;;;;39.90;15.57;;;13.20;77.50;;;;;;4994678;28;20033;-71
2023/04/06 07:41:34;;;;;;;28.80;14.10;;;13.90;71.40;;;;;;4978875;28;20038;-73
2023/04/06 07:44:00;;;;;;;26.87;16.60;;;13.00;74.00;;;;;;4998957;28;20506;-71
2023/04/06 07:46:26;;;;;;;28.33;15.37;;;12.60;75.10;;;;;;4992352;28;20406;-71
2023/04/06 07:48:51;;;;;;;21.63;13.20;;;12.20;75.90;;;;;;4994904;28;20030;-72
2023/04/06 07:51:17;;;;;;;20.53;11.17;;;12.50;75.90;;;;;;4978319;28;20145;-71
2023/04/06 07:53:44;;;;;;;27.43;12.73;;;13.50;74.80;;;;;;4993408;28;20038;-72
2023/04/06 07:56:10;;;;;;;19.48;10.73;;;14.40;69.30;;;;;;4989929;28;20054;-71
2023/04/06 07:58:36;;;;;;;22.67;12.07;;;13.90;71.40;;;;;;4996576;28;20034;-73
2023/04/06 08:01:02;;;;;;;21.60;10.87;;;14.40;69.90;;;;;;4994951;28;20017;-72
2023/04/06 08:03:27;;;;;;;19.40;10.98;;;14.80;67.70;;;;;;4997322;28;20085;-71
2023/04/06 08:05:53;;;;;;;15.40;9.63;;;15.90;64.40;;;;;;4978793;28;20042;-73
2023/04/06 08:08:21;;;;;;;18.40;10.00;;;15.90;65.40;;;;;;4990743;28;20045;-71
2023/04/06 08:10:48;;;;;;;15.38;10.10;;;16.90;65.20;;;;;;4994850;28;20099;-71
2023/04/06 08:13:14;;;;;;;18.55;9.38;;;16.70;62.40;;;;;;4998461;28;20021;-75
2023/04/06 08:15:40;;;;;;;16.95;9.25;;;17.40;62.90;;;;;;5001578;28;20034;-70
2023/04/06 08:18:05;;;;;;;19.27;10.98;;;17.00;61.30;;;;;;4993493;28;20456;-73
2023/04/06 08:20:31;;;;;;;18.13;10.37;;;17.20;58.30;;;;;;4995012;28;20042;-71
2023/04/06 08:22:57;;;;;;;23.03;10.27;;;17.90;59.60;;;;;;4998661;28;20062;-72
2023/04/06 08:25:22;;;;;;;14.50;8.63;;;17.60;60.00;;;;;;4996635;28;20030;-72
2023/04/06 08:27:48;;;;;;;14.57;9.43;;;17.60;60.40;;;;;;4995927;28;20034;-72
2023/04/06 08:30:15;;;;;;;18.40;9.20;;;18.10;60.30;;;;;;4996866;28;20375;-74
2023/04/06 08:32:41;;;;;;;19.50;9.07;;;20.60;55.40;;;;;;4995906;28;20109;-71
2023/04/06 08:35:07;;;;;;;14.32;9.20;;;20.90;54.00;;;;;;4996334;28;20462;-72
2023/04/06 08:37:33;;;;;;;17.08;9.35;;;22.00;53.50;;;;;;5002831;28;20544;-72
2023/04/06 08:39:59;;;;;;;17.33;9.07;;;22.90;52.60;;;;;;4998798;28;20061;-77
2023/04/06 08:42:26;;;;;;;16.15;9.38;;;23.10;52.10;;;;;;4996624;28;20315;-72
2023/04/06 08:44:52;;;;;;;;;;;22.90;50.40;;;;;;5003111;28;20418;-71
2023/04/06 08:47:18;;;;;;;23.50;10.70;;;23.50;51.90;;;;;;4998171;28;19924;-70
2023/04/06 08:49:44;;;;;;;15.68;9.32;;;23.80;50.00;;;;;;5003051;28;20052;-75
2023/04/06 08:52:10;;;;;;;;;;;22.90;50.50;;;;;;4997365;28;20394;-77
2023/04/06 08:54:36;;;;;;;17.55;8.52;;;21.90;48.90;;;;;;5000036;28;20031;-76
2023/04/06 08:57:02;;;;;;;18.75;9.27;;;22.30;51.70;;;;;;5001594;28;20545;-74
2023/04/06 08:59:28;;;;;;;14.77;9.68;;;23.60;49.50;;;;;;4997962;28;20096;-77
2023/04/06 09:01:55;;;;;;;12.95;8.48;;;24.50;49.60;;;;;;5000625;28;20545;-77
2023/04/06 09:04:21;;;;;;;21.10;8.65;;;25.30;48.50;;;;;;4997974;28;20037;-78
2023/04/06 09:06:46;;;;;;;10.75;8.15;;;26.20;46.20;;;;;;4997385;28;20061;-77
2023/04/06 09:09:12;;;;;;;12.65;7.40;;;26.90;45.40;;;;;;4994602;28;20120;-78
2023/04/06 09:11:46;;;;;;;10.20;6.88;;;25.30;43.20;;;;;;5004480;28;20494;-77
2023/04/06 09:14:12;;;;;;;10.93;6.78;;;25.90;42.90;;;;;;5002222;28;20026;-76
2023/04/06 09:16:43;;;;;;;12.60;5.80;;;25.70;43.90;;;;;;5000879;28;20115;-78
2023/04/06 09:19:09;;;;;;;8.88;5.68;;;25.70;40.40;;;;;;5000588;28;20068;-78
2023/04/06 09:21:36;;;;;;;8.57;6.32;;;25.50;44.10;;;;;;5001234;28;20037;-72
2023/04/06 09:24:03;;;;;;;7.88;5.53;;;23.90;44.90;;;;;;4998084;28;20036;-74
2023/04/06 09:26:29;;;;;;;7.97;5.75;;;23.80;44.60;;;;;;4993507;28;20042;-75
2023/04/06 09:28:57;;;;;;;8.50;5.90;;;24.90;44.40;;;;;;4999958;28;20033;-76
2023/04/06 09:31:25;;;;;;;9.63;5.60;;;26.80;43.40;;;;;;5001026;28;20061;-71
2023/04/06 09:33:52;;;;;;;8.10;5.50;;;26.10;41.30;;;;;;4996020;28;20018;-72
2023/04/06 09:36:17;;;;;;;7.75;5.60;;;26.00;40.70;;;;;;4998222;28;20026;-77
2023/04/06 09:38:54;;;;;;;7.05;5.20;;;27.10;41.20;;;;;;4999450;28;20045;-71
2023/04/06 09:41:31;;;;;;;10.57;6.05;;;26.50;42.00;;;;;;4978244;28;20030;-72
2023/04/06 09:44:06;;;;;;;11.20;6.25;;;26.60;43.00;;;;;;5001413;28;20040;-77
2023/04/06 09:46:36;;;;;;;8.52;6.22;;;27.20;39.30;;;;;;4997487;28;20038;-73
2023/04/06 09:49:03;;;;;;;10.35;5.57;;;24.90;39.00;;;;;;4997462;28;20029;-75
2023/04/06 09:51:31;;;;;;;7.63;4.90;;;23.00;41.30;;;;;;4999443;28;20040;-74
2023/04/06 09:54:04;;;;;;;7.70;5.85;;;23.10;42.40;;;;;;4995399;28;20039;-75
2023/04/06 09:56:58;;;;;;;11.77;6.35;;;24.50;44.50;;;;;;5002296;28;20085;-73
2023/04/06 09:59:46;;;;;;;14.15;6.18;;;25.60;44.80;;;;;;4997318;28;20371;-74
2023/04/06 10:02:27;;;;;;;7.72;5.07;;;25.70;39.50;;;;;;4985129;28;20046;-73
2023/04/06 10:05:31;;;;;;;7.28;5.13;;;23.90;39.80;;;;;;4995794;28;20397;-74
2023/04/06 10:07:59;;;;;;;7.53;5.22;;;23.90;40.70;;;;;;4995577;28;20026;-73
2023/04/06 10:10:25;;;;;;;14.27;5.55;;;22.40;40.00;;;;;;5003232;28;20030;-75
2023/04/06 10:12:51;;;;;;;10.70;5.00;;;22.60;41.80;;;;;;5002278;28;20017;-71
2023/04/06 10:15:17;;;;;;;8.43;5.13;;;23.90;40.40;;;;;;4994869;28;20105;-77
2023/04/06 10:17:43;;;;;;;;;;;24.10;44.00;;;;;;4998922;28;20040;-77
2023/04/06 10:20:22;;;;;;;8.73;4.90;;;25.30;43.60;;;;;;4996261;28;19917;-77
2023/04/06 10:23:33;;;;;;;8.60;4.97;;;26.20;42.80;;;;;;4996932;28;20038;-75
2023/04/06 10:26:00;;;;;;;6.65;4.72;;;27.10;41.20;;;;;;4907589;29;20581;-76
2023/04/06 10:28:31;;;;;;;7.38;5.72;;;27.70;41.80;;;;;;4964698;28;20504;-74
2023/04/06 10:31:10;;;;;;;6.90;4.53;;;28.40;39.80;;;;;;4992774;28;20034;-71
2023/04/06 10:33:36;;;;;;;8.63;5.40;;;28.70;41.70;;;;;;4998047;28;20509;-77
2023/04/06 10:36:10;;;;;;;7.20;4.47;;;26.60;37.80;;;;;;4995926;28;20053;-76
2023/04/06 10:38:41;;;;;;;6.50;5.03;;;25.60;38.20;;;;;;4994375;28;20061;-71
2023/04/06 11:16:17;;;;;;;11.75;4.45;;;19.70;46.50;;;;;;5096678;27;20409;-73
2023/04/06 11:19:07;;;;;;;6.40;4.40;;;19.10;46.70;;;;;;5095558;28;20055;-77
2023/04/06 11:21:43;;;;;;;6.97;4.65;;;18.50;45.80;;;;;;5086148;28;20063;-79
2023/04/06 11:24:22;;;;;;;6.63;4.20;;;18.20;45.90;;;;;;5085708;28;20032;-78
2023/04/06 11:26:56;;;;;;;5.85;4.00;;;17.80;46.70;;;;;;5085601;28;20525;-77
2023/04/06 11:29:26;;;;;;;6.65;4.78;;;17.30;45.60;;;;;;5083332;28;20064;-76
2023/04/06 11:31:54;;;;;;;10.10;4.40;;;17.60;46.70;;;;;;5084244;28;20118;-76
2023/04/06 11:34:21;;;;;;;6.68;4.40;;;17.40;46.00;;;;;;5087793;28;20036;-74
2023/04/06 11:36:49;;;;;;;6.57;4.25;;;17.80;45.20;;;;;;5090159;28;20028;-76
2023/04/06 11:39:23;;;;;;;6.25;4.55;;;17.90;48.70;;;;;;5084422;28;20523;-76
2023/04/06 11:41:54;;;;;;;6.00;4.18;;;18.10;45.60;;;;;;5084477;28;20480;-75
2023/04/06 11:44:48;;;;;;;7.68;5.05;;;18.10;50.00;;;;;;5083275;28;20450;-75
2023/04/06 11:47:15;;;;;;;7.60;4.35;;;17.80;46.30;;;;;;5086879;28;20060;-76
2023/04/06 11:49:42;;;;;;;7.30;4.10;;;18.30;48.20;;;;;;5084848;28;20031;-76
2023/04/06 11:52:19;;;;;;;7.15;3.97;;;17.70;47.70;;;;;;5083381;28;20334;-75
2023/04/06 11:54:46;;;;;;;7.65;4.30;;;17.70;48.50;;;;;;5084124;28;20391;-74
2023/04/06 11:57:12;;;;;;;8.35;3.67;;;17.40;47.40;;;;;;5083674;28;20024;-74
2023/04/06 11:59:38;;;;;;;6.67;4.03;;;17.40;49.40;;;;;;5082109;28;20032;-75
2023/04/06 12:02:04;;;;;;;5.80;4.00;;;17.20;47.70;;;;;;5082984;28;20123;-76
2023/04/06 12:04:30;;;;;;;5.72;4.05;;;17.50;49.20;;;;;;5086193;28;21812;-74
2023/04/06 12:06:56;;;;;;;7.70;4.38;;;17.70;48.40;;;;;;5086782;28;20024;-74
2023/04/06 12:09:22;;;;;;;7.88;4.68;;;17.40;49.00;;;;;;5087169;28;20036;-73
2023/04/06 12:11:48;;;;;;;10.87;3.70;;;17.80;49.30;;;;;;5085151;28;20038;-75
2023/04/06 12:14:13;;;;;;;7.00;4.77;;;17.70;47.10;;;;;;5083936;28;20123;-76
2023/04/06 12:16:40;;;;;;;9.27;4.63;;;17.70;48.70;;;;;;5087528;28;20028;-77
2023/04/06 12:19:06;;;;;;;9.05;4.72;;;17.50;48.90;;;;;;5081356;28;20033;-78
2023/04/06 12:21:33;;;;;;;8.93;4.63;;;17.20;46.70;;;;;;5082850;28;20059;-77
2023/04/06 12:23:58;;;;;;;;;;;17.40;48.20;;;;;;5082934;28;20063;-77
2023/04/06 12:26:25;;;;;;;7.47;4.90;;;17.20;49.70;;;;;;5077588;28;19993;-76
2023/04/06 12:28:51;;;;;;;8.55;4.43;;;17.40;47.60;;;;;;5070767;28;20040;-78
2023/04/06 12:31:21;;;;;;;9.80;4.00;;;17.30;45.50;;;;;;5062075;28;20020;-76
2023/04/06 12:33:48;;;;;;;10.95;4.35;;;17.10;48.70;;;;;;5066445;28;20511;-77
2023/04/06 12:36:15;;;;;;;6.68;3.92;;;17.20;43.80;;;;;;5069521;28;20403;-77
2023/04/06 12:38:41;;;;;;;8.98;4.63;;;17.40;44.80;;;;;;5066814;28;20504;-76
2023/04/06 12:41:07;;;;;;;6.97;4.03;;;17.00;45.70;;;;;;5070044;28;20024;-76
2023/04/06 12:43:33;;;;;;;8.95;4.72;;;17.10;47.50;;;;;;5072584;28;20086;-75
2023/04/06 12:45:59;;;;;;;9.38;4.85;;;16.70;46.40;;;;;;5077258;28;20028;-75
2023/04/06 12:48:27;;;;;;;6.28;4.45;;;17.00;46.10;;;;;;5072386;28;20048;-75
2023/04/06 12:51:00;;;;;;;7.18;4.72;;;17.10;45.60;;;;;;5069793;28;20020;-76
2023/04/06 12:53:27;;;;;;;10.13;5.38;;;17.50;47.30;;;;;;5070556;28;20082;-75
2023/04/06 12:55:56;;;;;;;9.68;5.28;;;17.60;46.10;;;;;;5069545;28;20464;-75
2023/04/06 12:58:22;;;;;;;9.73;5.10;;;17.30;50.10;;;;;;5068682;28;20047;-75
2023/04/06 13:00:50;;;;;;;6.45;4.97;;;17.50;51.10;;;;;;5069688;28;20020;-75
2023/04/06 13:03:16;;;;;;;8.32;4.70;;;17.50;47.70;;;;;;5070481;28;20037;-75
2023/04/06 13:05:45;;;;;;;9.63;5.30;;;17.50;50.00;;;;;;5069769;28;20032;-75
2023/04/06 13:08:11;;;;;;;7.13;4.05;;;17.80;47.90;;;;;;5068069;28;20040;-76
2023/04/06 13:10:37;;;;;;;6.93;4.45;;;17.80;48.30;;;;;;5070543;28;20035;-75
2023/04/06 13:13:03;;;;;;;7.70;4.60;;;17.50;47.60;;;;;;5069973;28;20036;-75
2023/04/06 13:15:29;;;;;;;10.23;4.78;;;17.90;46.20;;;;;;5073690;28;20040;-76
2023/04/06 13:17:55;;;;;;;9.05;4.80;;;17.80;49.00;;;;;;5074129;28;20025;-75
2023/04/06 13:20:20;;;;;;;8.13;5.00;;;16.90;48.20;;;;;;5070722;28;20041;-76